SAS7839 ESSA-LGSA
Flight info
| Callsign | SAS7839 |
|---|---|
| Flight time | N/A |
| Altitude | 30000 |
| Route | NOSLI N850 ABAMA DCT PENOR/N0442F310 DCT BEZMI DCT BADNO DCT REGLI DCT AMRAX/N0442F330 DCT PARAK DCT RAXAD DCT MAKED UL617 TSL DCT ATV UP169 MANOK UL612 RUSOS |
| Aircraft | MD82/M-SDFGIJ1RWY/S |
Departure
| Time | N/A |
|---|---|
| Airport | Stockholm-Arlanda Airport (ESSA) |
Arrival
| Time | 2026-04-29 16:22 |
|---|---|
| Airport | Chania International Airport (LGSA) |
| Time | Latitude | Longitude | Altitude | Speed | Heading |
|---|---|---|---|---|---|
| 2026-04-29 15:22 | 41.83124 | 22.35428 | 33003 ft | 462 kts | 176° |
| 2026-04-29 15:22 | 41.76795 | 22.36904 | 32993 ft | 461 kts | 175° |
| 2026-04-29 15:23 | 41.70492 | 22.38376 | 33005 ft | 461 kts | 175° |
| 2026-04-29 15:23 | 41.64173 | 22.39853 | 33011 ft | 461 kts | 175° |
| 2026-04-29 15:24 | 41.57852 | 22.41327 | 32991 ft | 460 kts | 175° |
| 2026-04-29 15:24 | 41.51533 | 22.42785 | 33005 ft | 461 kts | 175° |
| 2026-04-29 15:25 | 41.45199 | 22.44255 | 33012 ft | 462 kts | 175° |
| 2026-04-29 15:25 | 41.38865 | 22.45724 | 33029 ft | 462 kts | 175° |
| 2026-04-29 15:26 | 41.32526 | 22.47176 | 33022 ft | 463 kts | 175° |
| 2026-04-29 15:26 | 41.26180 | 22.48633 | 33027 ft | 463 kts | 174° |
| 2026-04-29 15:27 | 41.19834 | 22.50091 | 33032 ft | 463 kts | 174° |
| 2026-04-29 15:27 | 41.13509 | 22.51595 | 33028 ft | 463 kts | 168° |
| 2026-04-29 15:27 | 41.10492 | 22.53139 | 33041 ft | 468 kts | 156° |
| 2026-04-29 15:28 | 41.07609 | 22.55164 | 33037 ft | 470 kts | 154° |
| 2026-04-29 15:28 | 41.01907 | 22.59436 | 33038 ft | 471 kts | 153° |
| 2026-04-29 15:29 | 40.96185 | 22.63649 | 33042 ft | 471 kts | 154° |
| 2026-04-29 15:30 | 40.84673 | 22.71783 | 33045 ft | 467 kts | 155° |
| 2026-04-29 15:30 | 40.78962 | 22.75799 | 33050 ft | 468 kts | 155° |
| 2026-04-29 15:31 | 40.73214 | 22.79845 | 33056 ft | 469 kts | 155° |
| 2026-04-29 15:31 | 40.67228 | 22.82795 | 33061 ft | 460 kts | 173° |
| 2026-04-29 15:32 | 40.60895 | 22.84464 | 33038 ft | 462 kts | 170° |
| 2026-04-29 15:32 | 40.54658 | 22.86569 | 33039 ft | 463 kts | 168° |
| 2026-04-29 15:33 | 40.48461 | 22.88895 | 33040 ft | 462 kts | 167° |
| 2026-04-29 15:33 | 40.42520 | 22.91145 | 33041 ft | 461 kts | 167° |
| 2026-04-29 15:34 | 40.36385 | 22.93435 | 33044 ft | 462 kts | 168° |
| 2026-04-29 15:34 | 40.30189 | 22.95709 | 33047 ft | 463 kts | 168° |
| 2026-04-29 15:35 | 40.23979 | 22.97963 | 33044 ft | 463 kts | 168° |
| 2026-04-29 15:35 | 40.17762 | 23.00224 | 33050 ft | 464 kts | 167° |
| 2026-04-29 15:36 | 40.11558 | 23.02492 | 33046 ft | 463 kts | 167° |
| 2026-04-29 15:36 | 40.05491 | 23.04706 | 33046 ft | 461 kts | 167° |
| 2026-04-29 15:37 | 39.99307 | 23.06950 | 33040 ft | 461 kts | 167° |
| 2026-04-29 15:37 | 39.93129 | 23.09190 | 33043 ft | 462 kts | 167° |
| 2026-04-29 15:38 | 39.86932 | 23.11428 | 33047 ft | 462 kts | 167° |
| 2026-04-29 15:38 | 39.80733 | 23.13660 | 33033 ft | 462 kts | 167° |
| 2026-04-29 15:39 | 39.74536 | 23.15888 | 33039 ft | 462 kts | 167° |
| 2026-04-29 15:39 | 39.68335 | 23.18122 | 33047 ft | 462 kts | 167° |
| 2026-04-29 15:40 | 39.62136 | 23.20351 | 33043 ft | 462 kts | 167° |
| 2026-04-29 15:40 | 39.55959 | 23.22564 | 33042 ft | 460 kts | 167° |
| 2026-04-29 15:41 | 39.49791 | 23.24768 | 33040 ft | 460 kts | 167° |
| 2026-04-29 15:41 | 39.44673 | 23.26588 | 33041 ft | 461 kts | 167° |
| 2026-04-29 15:42 | 39.38489 | 23.28787 | 33045 ft | 461 kts | 167° |
| 2026-04-29 15:42 | 39.32298 | 23.30985 | 33039 ft | 461 kts | 167° |
| 2026-04-29 15:43 | 39.26107 | 23.33186 | 33037 ft | 462 kts | 167° |
| 2026-04-29 15:43 | 39.19923 | 23.35381 | 33040 ft | 461 kts | 167° |
| 2026-04-29 15:44 | 39.13748 | 23.37567 | 33031 ft | 459 kts | 167° |
| 2026-04-29 15:44 | 39.07602 | 23.39728 | 33036 ft | 457 kts | 167° |
| 2026-04-29 15:45 | 39.01457 | 23.41884 | 33040 ft | 458 kts | 167° |
| 2026-04-29 15:45 | 38.95297 | 23.44049 | 33043 ft | 459 kts | 167° |
| 2026-04-29 15:46 | 38.89122 | 23.46217 | 33033 ft | 460 kts | 167° |
| 2026-04-29 15:46 | 38.82937 | 23.48383 | 33037 ft | 461 kts | 167° |
| 2026-04-29 15:47 | 38.76761 | 23.50546 | 33033 ft | 459 kts | 167° |
| 2026-04-29 15:47 | 38.70608 | 23.52695 | 33034 ft | 458 kts | 167° |
| 2026-04-29 15:48 | 38.64454 | 23.54829 | 33030 ft | 459 kts | 167° |
| 2026-04-29 15:48 | 38.58279 | 23.56971 | 33047 ft | 460 kts | 167° |
| 2026-04-29 15:49 | 38.52106 | 23.59113 | 33032 ft | 460 kts | 167° |
| 2026-04-29 15:49 | 38.45922 | 23.61258 | 33045 ft | 461 kts | 167° |
| 2026-04-29 15:50 | 38.39734 | 23.63398 | 33048 ft | 461 kts | 167° |
| 2026-04-29 15:50 | 38.33550 | 23.65533 | 33046 ft | 459 kts | 167° |
| 2026-04-29 15:51 | 38.27387 | 23.67654 | 33045 ft | 458 kts | 167° |
| 2026-04-29 15:51 | 38.21230 | 23.69763 | 33045 ft | 459 kts | 167° |
| 2026-04-29 15:52 | 38.15060 | 23.71878 | 33044 ft | 460 kts | 167° |
| 2026-04-29 15:52 | 38.08898 | 23.73991 | 33043 ft | 459 kts | 167° |
| 2026-04-29 15:53 | 38.02728 | 23.76101 | 33045 ft | 460 kts | 167° |
| 2026-04-29 15:53 | 37.96548 | 23.78211 | 33067 ft | 460 kts | 167° |
| 2026-04-29 15:54 | 37.90365 | 23.80320 | 33059 ft | 460 kts | 167° |
| 2026-04-29 15:54 | 37.84177 | 23.82419 | 33070 ft | 460 kts | 167° |
| 2026-04-29 15:55 | 37.77999 | 23.84510 | 33068 ft | 459 kts | 167° |
| 2026-04-29 15:55 | 37.71828 | 23.86603 | 33062 ft | 459 kts | 167° |
| 2026-04-29 15:56 | 37.66707 | 23.88338 | 33056 ft | 458 kts | 167° |
| 2026-04-29 15:56 | 37.60542 | 23.90421 | 33055 ft | 459 kts | 167° |
| 2026-04-29 15:57 | 37.54370 | 23.92502 | 33056 ft | 459 kts | 167° |
| 2026-04-29 15:57 | 37.48192 | 23.94582 | 33043 ft | 459 kts | 167° |
| 2026-04-29 15:58 | 37.42019 | 23.96650 | 33050 ft | 459 kts | 167° |
| 2026-04-29 15:58 | 37.35836 | 23.98719 | 33052 ft | 459 kts | 167° |
| 2026-04-29 15:59 | 37.29657 | 24.00789 | 33052 ft | 460 kts | 167° |
| 2026-04-29 15:59 | 37.23477 | 24.02858 | 33051 ft | 460 kts | 167° |
| 2026-04-29 16:00 | 37.17297 | 24.04921 | 33052 ft | 460 kts | 167° |
| 2026-04-29 16:00 | 37.11100 | 24.06985 | 33057 ft | 460 kts | 167° |
| 2026-04-29 16:01 | 37.04911 | 24.09038 | 33055 ft | 460 kts | 167° |
| 2026-04-29 16:01 | 36.98717 | 24.11093 | 33050 ft | 461 kts | 168° |
| 2026-04-29 16:02 | 36.92527 | 24.13142 | 33051 ft | 461 kts | 168° |
| 2026-04-29 16:02 | 36.86323 | 24.15193 | 33055 ft | 461 kts | 168° |
| 2026-04-29 16:03 | 36.80122 | 24.17241 | 33052 ft | 461 kts | 168° |
| 2026-04-29 16:03 | 36.73918 | 24.19296 | 33052 ft | 462 kts | 168° |
| 2026-04-29 16:04 | 36.67647 | 24.21355 | 32972 ft | 465 kts | 168° |
| 2026-04-29 16:04 | 36.64522 | 24.22373 | 32413 ft | 475 kts | 168° |
| 2026-04-29 16:04 | 36.61322 | 24.23416 | 31623 ft | 476 kts | 168° |
| 2026-04-29 16:04 | 36.58117 | 24.24465 | 30623 ft | 478 kts | 168° |
| 2026-04-29 16:05 | 36.54892 | 24.25523 | 29482 ft | 480 kts | 168° |
| 2026-04-29 16:05 | 36.51660 | 24.26588 | 28339 ft | 481 kts | 168° |
| 2026-04-29 16:05 | 36.48418 | 24.27650 | 27229 ft | 481 kts | 168° |
| 2026-04-29 16:05 | 36.45176 | 24.28706 | 26141 ft | 481 kts | 168° |
| 2026-04-29 16:06 | 36.41944 | 24.29758 | 25062 ft | 481 kts | 167° |
| 2026-04-29 16:06 | 36.38700 | 24.30814 | 23989 ft | 481 kts | 167° |
| 2026-04-29 16:06 | 36.35473 | 24.31865 | 22777 ft | 477 kts | 167° |
| 2026-04-29 16:06 | 36.32318 | 24.32898 | 21581 ft | 461 kts | 167° |
| 2026-04-29 16:07 | 36.29270 | 24.33902 | 20539 ft | 446 kts | 167° |
| 2026-04-29 16:07 | 36.26347 | 24.34891 | 19860 ft | 425 kts | 167° |
| 2026-04-29 16:07 | 36.23535 | 24.35845 | 18852 ft | 415 kts | 167° |
| 2026-04-29 16:07 | 36.20732 | 24.36463 | 17731 ft | 408 kts | 182° |
| 2026-04-29 16:08 | 36.17945 | 24.36049 | 17036 ft | 400 kts | 194° |
| 2026-04-29 16:08 | 36.15251 | 24.35282 | 16308 ft | 395 kts | 196° |
| 2026-04-29 16:08 | 36.12596 | 24.34462 | 15622 ft | 391 kts | 196° |
| 2026-04-29 16:08 | 36.09969 | 24.33639 | 14922 ft | 388 kts | 196° |
| 2026-04-29 16:09 | 36.07361 | 24.32832 | 14246 ft | 385 kts | 195° |
| 2026-04-29 16:09 | 36.04771 | 24.32052 | 13528 ft | 382 kts | 195° |
| 2026-04-29 16:09 | 36.02200 | 24.31303 | 12812 ft | 378 kts | 194° |
| 2026-04-29 16:09 | 35.99649 | 24.30581 | 12091 ft | 374 kts | 194° |
| 2026-04-29 16:10 | 35.97124 | 24.29870 | 11336 ft | 370 kts | 194° |
| 2026-04-29 16:10 | 35.94628 | 24.29180 | 10753 ft | 363 kts | 193° |
| 2026-04-29 16:10 | 35.92231 | 24.28527 | 10590 ft | 343 kts | 193° |
| 2026-04-29 16:10 | 35.89971 | 24.27912 | 10417 ft | 325 kts | 193° |
| 2026-04-29 16:11 | 35.87808 | 24.27322 | 10240 ft | 310 kts | 193° |
| 2026-04-29 16:11 | 35.85751 | 24.26757 | 10110 ft | 295 kts | 194° |
| 2026-04-29 16:11 | 35.83821 | 24.26119 | 9945 ft | 282 kts | 206° |
| 2026-04-29 16:11 | 35.82315 | 24.24687 | 9705 ft | 268 kts | 237° |
| 2026-04-29 16:12 | 35.81512 | 24.22703 | 9620 ft | 255 kts | 256° |
| 2026-04-29 16:12 | 35.81277 | 24.21280 | 9553 ft | 257 kts | 267° |
| 2026-04-29 16:12 | 35.81497 | 24.18345 | 9350 ft | 260 kts | 286° |
| 2026-04-29 16:12 | 35.81955 | 24.16182 | 9096 ft | 264 kts | 284° |
| 2026-04-29 16:13 | 35.82229 | 24.13941 | 8788 ft | 265 kts | 275° |
| 2026-04-29 16:13 | 35.82249 | 24.11682 | 8473 ft | 263 kts | 268° |
| 2026-04-29 16:13 | 35.82071 | 24.09460 | 8216 ft | 260 kts | 263° |
| 2026-04-29 16:13 | 35.81737 | 24.07286 | 8008 ft | 257 kts | 258° |
| 2026-04-29 16:14 | 35.81269 | 24.05151 | 7790 ft | 258 kts | 254° |
| 2026-04-29 16:14 | 35.80685 | 24.03067 | 7643 ft | 257 kts | 250° |
| 2026-04-29 16:14 | 35.79996 | 24.01027 | 7486 ft | 258 kts | 246° |
| 2026-04-29 16:14 | 35.79206 | 23.99035 | 7314 ft | 260 kts | 243° |
| 2026-04-29 16:15 | 35.78319 | 23.97095 | 7126 ft | 261 kts | 240° |
| 2026-04-29 16:15 | 35.77337 | 23.95219 | 6914 ft | 260 kts | 236° |
| 2026-04-29 16:15 | 35.76266 | 23.93415 | 6574 ft | 263 kts | 233° |
| 2026-04-29 16:15 | 35.75106 | 23.91692 | 6287 ft | 259 kts | 229° |
| 2026-04-29 16:16 | 35.73886 | 23.90087 | 6024 ft | 255 kts | 225° |
| 2026-04-29 16:16 | 35.72612 | 23.88598 | 5787 ft | 250 kts | 222° |
| 2026-04-29 16:16 | 35.71285 | 23.87215 | 5526 ft | 251 kts | 219° |
| 2026-04-29 16:16 | 35.69883 | 23.85934 | 5182 ft | 255 kts | 212° |
| 2026-04-29 16:17 | 35.68193 | 23.85226 | 4633 ft | 262 kts | 181° |
| 2026-04-29 16:17 | 35.66480 | 23.85776 | 4270 ft | 256 kts | 143° |
| 2026-04-29 16:17 | 35.65423 | 23.87425 | 4182 ft | 238 kts | 114° |
| 2026-04-29 16:17 | 35.64506 | 23.89050 | 3847 ft | 237 kts | 143° |
| 2026-04-29 16:18 | 35.63158 | 23.90134 | 3839 ft | 220 kts | 142° |
| 2026-04-29 16:18 | 35.61984 | 23.91338 | 3616 ft | 219 kts | 136° |
| 2026-04-29 16:18 | 35.60916 | 23.92621 | 3497 ft | 213 kts | 124° |
| 2026-04-29 16:18 | 35.60278 | 23.94233 | 3389 ft | 209 kts | 111° |
| 2026-04-29 16:19 | 35.59690 | 23.95838 | 3258 ft | 203 kts | 115° |
| 2026-04-29 16:19 | 35.59066 | 23.97379 | 3136 ft | 200 kts | 115° |
| 2026-04-29 16:19 | 35.58462 | 23.98927 | 2900 ft | 203 kts | 114° |
| 2026-04-29 16:19 | 35.57884 | 24.00511 | 2631 ft | 205 kts | 112° |
| 2026-04-29 16:20 | 35.57332 | 24.02113 | 2344 ft | 207 kts | 112° |
| 2026-04-29 16:20 | 35.56797 | 24.03744 | 2091 ft | 203 kts | 111° |
| 2026-04-29 16:20 | 35.56284 | 24.05330 | 1818 ft | 197 kts | 111° |
| 2026-04-29 16:20 | 35.55798 | 24.06840 | 1528 ft | 183 kts | 111° |
| 2026-04-29 16:21 | 35.55339 | 24.08253 | 1267 ft | 172 kts | 111° |
| 2026-04-29 16:21 | 35.54910 | 24.09572 | 1030 ft | 164 kts | 111° |
| 2026-04-29 16:21 | 35.54498 | 24.10846 | 877 ft | 155 kts | 110° |
| 2026-04-29 16:21 | 35.54126 | 24.12049 | 740 ft | 153 kts | 111° |
| 2026-04-29 16:22 | 35.53733 | 24.13259 | 549 ft | 148 kts | 111° |
| 2026-04-29 16:22 | 35.53369 | 24.14366 | 496 ft | 130 kts | 111° |
| 2026-04-29 16:22 | 35.53075 | 24.15282 | 484 ft | 94 kts | 111° |
| 2026-04-29 16:22 | 35.52898 | 24.15818 | 487 ft | 47 kts | 111° |
| 2026-04-29 16:23 | 35.52806 | 24.16096 | 492 ft | 30 kts | 112° |
| 2026-04-29 16:23 | 35.52801 | 24.16218 | 499 ft | 11 kts | 32° |
| 2026-04-29 16:23 | 35.52873 | 24.16257 | 491 ft | 12 kts | 25° |
| 2026-04-29 16:23 | 35.52937 | 24.16248 | 497 ft | 9 kts | 304° |
| 2026-04-29 16:24 | 35.52965 | 24.16171 | 492 ft | 10 kts | 291° |
| 2026-04-29 16:24 | 35.52999 | 24.16066 | 493 ft | 17 kts | 292° |
| 2026-04-29 16:24 | 35.53045 | 24.15927 | 492 ft | 18 kts | 292° |
| 2026-04-29 16:24 | 35.53092 | 24.15781 | 490 ft | 19 kts | 292° |
| 2026-04-29 16:25 | 35.53143 | 24.15628 | 492 ft | 20 kts | 292° |
| 2026-04-29 16:25 | 35.53195 | 24.15468 | 491 ft | 21 kts | 291° |
| 2026-04-29 16:25 | 35.53248 | 24.15301 | 489 ft | 21 kts | 291° |
| 2026-04-29 16:25 | 35.53303 | 24.15131 | 494 ft | 22 kts | 292° |
| 2026-04-29 16:26 | 35.53360 | 24.14957 | 495 ft | 22 kts | 292° |
| 2026-04-29 16:26 | 35.53419 | 24.14781 | 490 ft | 22 kts | 292° |
| 2026-04-29 16:26 | 35.53476 | 24.14601 | 494 ft | 23 kts | 291° |
| 2026-04-29 16:26 | 35.53534 | 24.14421 | 494 ft | 20 kts | 292° |
| 2026-04-29 16:27 | 35.53566 | 24.14345 | 489 ft | 2 kts | 332° |
| 2026-04-29 16:27 | 35.53587 | 24.14343 | 491 ft | 6 kts | 2° |
| 2026-04-29 16:27 | 35.53634 | 24.14358 | 491 ft | 8 kts | 18° |
| 2026-04-29 16:27 | 35.53680 | 24.14341 | 494 ft | 8 kts | 307° |
| 2026-04-29 16:28 | 35.53706 | 24.14279 | 491 ft | 9 kts | 293° |
| 2026-04-29 16:28 | 35.53731 | 24.14205 | 495 ft | 10 kts | 292° |
| 2026-04-29 16:28 | 35.53758 | 24.14120 | 492 ft | 11 kts | 291° |
| 2026-04-29 16:28 | 35.53788 | 24.14027 | 493 ft | 12 kts | 292° |
| 2026-04-29 16:29 | 35.53816 | 24.13988 | 493 ft | 5 kts | 357° |
| 2026-04-29 16:29 | 35.53852 | 24.13999 | 496 ft | 6 kts | 21° |
| 2026-04-29 16:29 | 35.53877 | 24.14012 | 493 ft | 0 kts | 22° |